Dera Ismail Khan Weather



Dera Ismail Khan's Current Weather

Temprature 33.05o clear sky

clear sky

Rain: 0 %

Min Temprature33.05o
Max Temprature33.05o
Humidity34
Wind Speed3.44 m/h
Sun Rise05:46:01
Sun Set18:52:40
Current Time: 23-Aug-2019 05:40:14
Lat/Lon: 31.83, 70.91




Dera Ismail Khan's Geo Location



Dera Ismail Khan's Weather Forecast

Time Overall Temp Min Temp Max Temp Humidity Wind Speed Rain
23-Aug-2019 (Fri)
08:00:00 clear sky 33.290 33.287 33.290 36 4.54 m/h 0 %
11:00:00 clear sky 36.950 36.950 36.950 31 3.03 m/h 0 %
14:00:00 clear sky 40.030 40.030 40.031 22 1.82 m/h 0 %
17:00:00 clear sky 41.410 41.410 41.411 16 0.82 m/h 0 %
20:00:00 clear sky 39.650 39.650 39.650 22 0.99 m/h 0 %
23:00:00 clear sky 37.542 37.542 37.542 22 2.25 m/h 0 %
24-Aug-2019 (Sat)
02:00:00 clear sky 35.931 35.931 35.931 24 3.55 m/h 0 %
05:00:00 clear sky 33.555 33.555 33.555 33 2.44 m/h 0 %
08:00:00 clear sky 35.087 35.087 35.087 31 3.85 m/h 0 %
11:00:00 clear sky 39.169 39.169 39.169 23 3.83 m/h 0 %
14:00:00 clear sky 41.569 41.569 41.569 18 2.4 m/h 0 %
17:00:00 clear sky 42.623 42.623 42.623 13 1.81 m/h 0 %
20:00:00 clear sky 40.250 40.250 40.250 16 3.25 m/h 0 %
23:00:00 clear sky 37.869 37.869 37.869 20 2.68 m/h 0 %
25-Aug-2019 (Sun)
02:00:00 clear sky 35.731 35.731 35.731 24 2.19 m/h 0 %
05:00:00 clear sky 33.857 33.857 33.857 28 3.19 m/h 0 %
08:00:00 clear sky 35.614 35.614 35.614 28 3.96 m/h 0 %
11:00:00 clear sky 39.316 39.316 39.316 21 2.67 m/h 0 %
14:00:00 clear sky 42.250 42.250 42.250 17 2.92 m/h 0 %
17:00:00 clear sky 43.250 43.250 43.250 13 2.7 m/h 0 %
20:00:00 clear sky 40.681 40.681 40.681 16 3.33 m/h 0 %
23:00:00 clear sky 38.311 38.311 38.311 19 3.31 m/h 0 %
26-Aug-2019 (Mon)
02:00:00 clear sky 35.365 35.365 35.365 33 5.48 m/h 0 %
05:00:00 clear sky 33.550 33.550 33.550 43 3.31 m/h 0 %
08:00:00 clear sky 33.267 33.267 33.267 48 5.11 m/h 0 %
11:00:00 clear sky 37.372 37.372 37.372 33 3.58 m/h 0 %
14:00:00 clear sky 40.584 40.584 40.584 25 3.96 m/h 0 %
17:00:00 few clouds 41.220 41.220 41.220 22 3.13 m/h 0 %
20:00:00 clear sky 39.572 39.572 39.572 24 3.41 m/h 0 %
23:00:00 clear sky 38.114 38.114 38.114 26 2.05 m/h 0 %
27-Aug-2019 (Tue)
02:00:00 clear sky 35.216 35.216 35.216 39 5.19 m/h 0 %
05:00:00 scattered clouds 33.950 33.950 33.950 44 2.58 m/h 0 %
08:00:00 broken clouds 35.035 35.035 35.035 40 3.32 m/h 0 %
11:00:00 scattered clouds 38.136 38.136 38.136 32 2.74 m/h 0 %
14:00:00 clear sky 40.936 40.936 40.936 24 1.95 m/h 0 %
17:00:00 few clouds 42.065 42.065 42.065 19 1.71 m/h 0 %
20:00:00 few clouds 40.850 40.850 40.850 22 1.02 m/h 0 %
23:00:00 scattered clouds 38.850 38.850 38.850 26 5.78 m/h 0 %
28-Aug-2019 (Wed)
02:00:00 few clouds 37.057 37.057 37.057 31 4.22 m/h 0 %
05:00:00 few clouds 35.272 35.272 35.272 36 3.42 m/h 0 %


Dera Ismail Khan's Tourist Spots

Historical Places in Dera Ismail Khan

Famous Cities (61)